A- A+ FrançaisEnglishEspañol中国

Services sur Internet Soldes sur Internet Des idées de cadeaux Météo Météo aéro

La météo à : Autours de vous Lyon-Bron Orange-CaritatBordeaux-MerignacBiscarrosse-Parentis

La météo aéronautique pour les pilotes, la préparation du vol avec les METAR (METeorological Aerodrome Report, message d'observation des conditions météorologiques pour l'aviation) et Les TAF (Terminal Aerodrome Forecast : message de prévision à court terme des conditions météorologiques pour l'aviation). Et les autres ressources comme les VAC (Visual Approch Chart) et les NOTAM (Notice To Airman) pour préprer les vols.

Aéroport Lyon-Bron (France) / OACI LFLY / IATA LYN

L'altitude de l'aéroport Lyon-Bron est de 201 mètres. Il est situé à proximité de Lyon (France). La météo générale à 5 jours est disponible pour Saint-Priest situé à 3.5 km.

METAR de l'aéroport Lyon-Bron - LFLY

LFLY 211200Z AUTO 13005KT 9999 OVC052 10/04 Q1007 NOSIG

Décodage du METAR de l'aéroport Lyon-Bron (France)

METAR émis par LFLY le jeudi 21 novembre 2019 à 12:00 heure TU. C'est un METAR généré automatiquement, il y a 9 minutes.

La visibilité est de supérieure à 10 km = supérieure à 6.2 sm.

La température est de 10°C et le point rosée est de 4°C. Ce qui correspond à 66% d'humidité relative.

Le QNH est de 1007 hPa = 29.74 inHg

Vent de 5 kt = 9 km/h, orienté à 130°.

Nuages : Couverture nuageuse soudée à 5200 ft = 1580 mètres.

Aucun changement significatif dans les deux heures à venir

TAF de l'aéroport Lyon-Bron - LFLY

LFLY 211100Z 2112/2212 14006KT CAVOK TEMPO 2117/2124 -RA BKN035 PROB30 TEMPO 2203/2209 BKN008

LFLY 211100Z 2112/2212 14006KT visibilité supérieure à 10km, aucun nuage à une hauteur inférieure à 5000 ft ou sous l'altitude minimale de secteur et aucun cumulonimbus ou cumulus bourgeonnant, quelle que soit leur altitude temporairement 2117/2124 faible RA couverture nuageuse fragmentée à 035 probabilité de 30% d'avoir temporairement 2203/2209 couverture nuageuse fragmentée à 008

Aéroport à proximité de Lyon-Bron

Météo générale à 5 jours à Saint-Priest (3.5 km)Aéroport Lyon-Corbas (8 km)Aéroport Lyon-Saint-Exupéry (11 km)Aéroport Lyon-Brindas (19 km)Aéroport Perouges-Meximieux (25 km)Aéroport Vienne-Renentin (31 km)Aéroport Villefranche-Tarare (32 km)

VAC de l'aéroport Lyon-Bron - LFLY

La carte d'approche à vue (VAC Visual Approah Chart) est fournie sans aucune garantie de son actualité. Le pilote est le seul responsable de la vérification de sa validité avant de l'utiliser opérationnellement pour préparer un vol ou l'utiliser lors de sa navigation.

VAC SIA de LFLY

Vue aérienne de l'aéroport Lyon-Bron

NOTAM de l'aéroport Lyon-Bron

Les NOTAM sont fournis sans aucune garantie de leur actualité. Le pilote est le seul responsable de la vérification de sa validité avant de l'utiliser opérationnellement pour préparer un vol ou l'utiliser lors de sa navigation.

Pas de NOTAM

Sources des données